createdAt,value
2023-03-06T03:36:25.860Z,0.00
2023-03-06T03:38:03.313Z,0.00
2023-03-06T03:39:32.924Z,0.00
2023-03-06T03:41:00.408Z,0.00
2023-03-06T03:42:26.337Z,0.00
2023-03-06T03:43:50.479Z,0.00
2023-03-06T03:45:13.731Z,0.00
2023-03-06T03:46:35.476Z,0.00
2023-03-06T03:47:55.932Z,0.00
2023-03-06T03:49:16.153Z,0.00
2023-03-06T03:50:35.133Z,0.00
2023-03-06T03:51:52.045Z,0.00
2023-03-06T03:53:08.602Z,0.00
2023-03-06T03:54:24.599Z,0.00
2023-03-06T03:55:40.252Z,0.00
2023-03-06T03:56:54.445Z,0.00
2023-03-06T03:58:07.355Z,0.00
2023-03-06T03:59:19.992Z,0.00
2023-03-06T04:00:33.534Z,0.00
2023-03-06T04:01:45.336Z,0.00
2023-03-06T04:02:56.100Z,0.00
2023-03-06T04:04:05.745Z,0.00
2023-03-06T04:05:15.345Z,0.00
2023-03-06T04:06:23.755Z,0.00
2023-03-06T04:07:31.872Z,0.00
2023-03-06T04:08:40.387Z,0.00
2023-03-06T04:09:46.897Z,0.00
2023-03-06T04:10:52.276Z,0.00
2023-03-06T04:11:56.181Z,0.00
2023-03-06T04:13:01.848Z,0.00
2023-03-06T04:14:03.329Z,0.00
2023-03-06T04:15:05.359Z,0.00
2023-03-06T04:16:07.448Z,0.00
2023-03-06T04:17:08.869Z,0.00
2023-03-06T04:18:09.406Z,0.00
2023-03-06T04:19:10.264Z,0.00
2023-03-06T04:20:09.907Z,0.00
2023-03-06T04:21:08.634Z,0.00
2023-03-06T04:22:07.968Z,0.00
2023-03-06T04:23:04.554Z,0.00
2023-03-06T04:24:00.872Z,0.00
2023-03-06T04:24:56.539Z,0.00
2023-03-06T04:25:52.604Z,0.00
2023-03-06T04:26:48.740Z,0.00
2023-03-06T04:27:42.513Z,0.00
2023-03-06T04:28:34.174Z,0.00
2023-03-06T04:29:28.056Z,0.00
2023-03-06T04:30:22.240Z,0.00
2023-03-06T04:31:13.868Z,0.00
2023-03-06T04:32:07.030Z,0.00
2023-03-06T04:32:57.528Z,0.00
2023-03-06T04:33:49.905Z,0.00
2023-03-06T04:34:38.308Z,0.00
2023-03-06T04:35:29.537Z,0.00
2023-03-06T04:36:17.274Z,0.00
2023-03-06T04:37:06.613Z,0.00
2023-03-06T04:37:55.355Z,0.00
2023-03-06T04:38:43.300Z,0.00
2023-03-06T04:39:30.128Z,0.00
2023-03-06T04:40:18.531Z,0.00
2023-03-06T04:41:03.947Z,0.00
2023-03-06T04:41:49.945Z,0.00
2023-03-06T04:42:36.583Z,0.00
2023-03-06T04:43:21.404Z,0.00
2023-03-06T04:44:05.879Z,0.00
2023-03-06T04:44:52.199Z,0.00
2023-03-06T04:45:37.039Z,0.00
2023-03-06T04:46:20.288Z,0.00
2023-03-06T04:47:06.019Z,0.00
2023-03-06T04:47:49.919Z,0.00
2023-03-06T04:48:32.022Z,0.00
2023-03-06T04:49:17.432Z,0.00
2023-03-06T04:49:58.659Z,0.00
2023-03-06T04:50:41.882Z,0.00
2023-03-06T04:51:24.572Z,0.00
2023-03-06T04:52:08.791Z,0.00
2023-03-06T04:52:49.080Z,0.00
2023-03-06T04:53:31.180Z,0.00
2023-03-06T04:54:11.126Z,0.00
2023-03-06T04:54:53.809Z,0.00
2023-03-06T04:55:36.211Z,0.00
2023-03-06T04:56:20.802Z,0.00
2023-03-06T04:57:02.495Z,0.00
2023-03-06T04:57:43.354Z,0.00
2023-03-06T04:58:23.312Z,0.00
2023-03-06T04:59:06.326Z,0.00
2023-03-06T04:59:45.331Z,0.00
2023-03-06T05:00:27.719Z,0.00
2023-03-06T05:01:08.051Z,0.00
2023-03-06T05:01:54.675Z,0.00
2023-03-06T05:02:33.781Z,0.00
2023-03-06T05:03:19.677Z,0.00
2023-03-06T05:03:56.033Z,0.00
2023-03-06T05:04:40.225Z,0.00
2023-03-06T05:05:22.675Z,0.00
2023-03-06T05:06:05.080Z,0.00
2023-03-06T05:06:43.758Z,0.00
2023-03-06T05:07:28.212Z,0.00
2023-03-06T05:08:07.559Z,0.00
2023-03-06T05:08:53.299Z,0.00
2023-03-06T05:09:33.532Z,0.00
2023-03-06T05:10:19.242Z,0.00
2023-03-06T05:10:59.524Z,0.00
2023-03-06T05:11:46.128Z,0.00
2023-03-06T05:12:28.522Z,0.00
2023-03-06T05:13:14.851Z,0.00
2023-03-06T05:13:58.159Z,0.00
2023-03-06T05:14:39.336Z,0.00
2023-03-06T05:15:20.798Z,0.00
2023-03-06T05:16:02.547Z,0.00
2023-03-06T05:16:44.391Z,0.00
2023-03-06T05:17:27.015Z,0.00
2023-03-06T05:18:08.494Z,0.00
2023-03-06T05:18:52.698Z,0.00
2023-03-06T05:19:36.905Z,0.00
2023-03-06T05:20:20.220Z,0.00
2023-03-06T05:21:05.606Z,0.00
2023-03-06T05:21:48.893Z,0.00
2023-03-06T05:22:36.452Z,0.00
2023-03-06T05:23:18.801Z,0.00
2023-03-06T05:24:05.436Z,0.00
2023-03-06T05:24:49.634Z,0.00
2023-03-06T05:25:37.491Z,0.00
2023-03-06T05:26:23.470Z,0.00
2023-03-06T05:27:10.082Z,0.00
2023-03-06T05:27:58.228Z,0.00
2023-03-06T05:28:46.380Z,0.00
2023-03-06T05:29:33.902Z,0.00
2023-03-06T05:30:24.179Z,0.00
2023-03-06T05:31:11.691Z,0.00
2023-03-06T05:32:01.210Z,0.00
2023-03-06T05:32:51.027Z,0.00
2023-03-06T05:33:41.724Z,0.00
2023-03-06T05:34:26.647Z,0.00
2023-03-06T05:35:20.004Z,0.00
2023-03-06T05:36:04.757Z,0.00
2023-03-06T05:36:58.320Z,0.00
2023-03-06T05:37:44.344Z,0.00
2023-03-06T05:38:30.960Z,0.00
2023-03-06T05:39:18.193Z,0.00
2023-03-06T05:40:05.720Z,0.00
2023-03-06T05:40:53.261Z,0.00
2023-03-06T05:41:41.406Z,0.00
2023-03-06T05:42:32.047Z,0.00
2023-03-06T05:43:25.266Z,0.00
2023-03-06T05:44:17.343Z,0.00
2023-03-06T05:45:05.785Z,0.00
2023-03-06T05:45:57.608Z,0.00
2023-03-06T05:46:48.131Z,0.00
2023-03-06T05:47:40.191Z,0.00
2023-03-06T05:48:28.933Z,0.00
2023-03-06T05:49:21.916Z,0.00
2023-03-06T05:50:14.990Z,0.00
2023-03-06T05:51:06.096Z,0.00
2023-03-06T05:51:59.388Z,0.00
2023-03-06T05:52:53.260Z,0.00
2023-03-06T05:53:46.835Z,0.00
2023-03-06T05:54:41.037Z,0.00
2023-03-06T05:55:35.826Z,0.00
2023-03-06T05:56:32.138Z,0.00
2023-03-06T05:57:27.888Z,0.00
2023-03-06T05:58:25.061Z,0.00
2023-03-06T05:59:18.961Z,0.00
2023-03-06T06:00:16.776Z,0.00
2023-03-06T06:01:15.830Z,0.00
2023-03-06T06:02:15.494Z,0.00
2023-03-06T06:03:14.234Z,0.00
2023-03-06T06:04:15.667Z,0.00
2023-03-06T06:05:15.942Z,0.00
2023-03-06T06:06:15.930Z,0.00
2023-03-06T06:07:15.955Z,0.00
2023-03-06T06:08:15.891Z,0.00
2023-03-06T06:09:15.890Z,0.00
2023-03-06T06:10:15.886Z,0.00
2023-03-06T06:11:15.868Z,0.00
2023-03-06T06:12:15.887Z,0.00
2023-03-06T06:13:15.836Z,0.00
2023-03-06T06:14:15.828Z,0.00
2023-03-06T06:15:15.825Z,0.00
2023-03-06T06:16:16.006Z,0.00
2023-03-06T06:17:15.824Z,0.00
2023-03-06T06:18:15.807Z,0.00
2023-03-06T06:19:15.766Z,0.00
2023-03-06T06:20:15.770Z,0.00
2023-03-06T06:21:15.751Z,0.00
2023-03-06T06:22:15.749Z,0.00
2023-03-06T06:23:15.753Z,0.00
2023-03-06T06:24:15.726Z,0.00
2023-03-06T06:25:15.710Z,0.00
2023-03-06T06:26:15.703Z,0.00
2023-03-06T06:27:15.706Z,0.00
2023-03-06T06:28:15.681Z,0.00
2023-03-06T06:29:15.684Z,0.00
2023-03-06T06:30:15.660Z,0.00
2023-03-06T06:31:15.677Z,0.00
2023-03-06T06:32:15.650Z,0.00
2023-03-06T06:33:15.635Z,0.00
2023-03-06T06:34:15.618Z,0.00
2023-03-06T06:35:15.604Z,0.00
2023-03-06T06:36:15.588Z,0.00
2023-03-06T06:37:15.577Z,0.00
2023-03-06T06:38:15.577Z,0.00
2023-03-06T06:39:15.552Z,0.00
2023-03-06T06:40:15.547Z,0.00
2023-03-06T06:41:46.251Z,0.00
2023-03-06T06:42:31.207Z,0.00
2023-03-06T06:43:16.511Z,0.00
2023-03-06T06:57:32.987Z,5.62
2023-03-06T06:58:32.919Z,11.25
2023-03-06T06:59:32.895Z,5.62
2023-03-06T07:00:32.925Z,5.62
2023-03-06T07:01:32.936Z,5.62
2023-03-06T07:02:32.880Z,5.62
2023-03-06T07:03:32.895Z,5.62
2023-03-06T07:04:32.852Z,5.62
2023-03-06T07:05:32.818Z,5.62
2023-03-06T07:06:32.810Z,5.62
2023-03-06T07:07:32.822Z,5.62
2023-03-06T07:08:32.797Z,5.62
2023-03-06T07:09:32.773Z,5.62
2023-03-06T07:10:32.767Z,5.62
2023-03-06T07:11:32.759Z,5.62
2023-03-06T07:12:32.763Z,5.62
2023-03-06T07:13:32.787Z,11.25
2023-03-06T07:14:32.752Z,11.25
2023-03-06T07:15:32.703Z,11.25
2023-03-06T07:16:32.698Z,11.25
2023-03-06T07:17:32.712Z,11.25
2023-03-06T07:18:32.670Z,11.25
2023-03-06T07:19:32.671Z,11.25
2023-03-06T07:20:32.662Z,11.25
2023-03-06T07:21:32.647Z,11.25
2023-03-06T07:22:41.574Z,11.25
2023-03-06T07:23:33.637Z,11.25
2023-03-06T07:24:32.606Z,11.25
2023-03-06T07:25:32.596Z,11.25
2023-03-06T07:26:34.617Z,11.25
2023-03-06T07:27:32.627Z,11.25
2023-03-06T07:28:46.181Z,11.25
2023-03-06T07:29:33.584Z,11.25
2023-03-06T07:30:32.553Z,16.88
2023-03-06T07:31:33.173Z,16.88
2023-03-06T07:32:32.541Z,16.88
2023-03-06T07:33:32.513Z,16.88
2023-03-06T07:34:32.520Z,16.88
2023-03-06T07:35:32.588Z,16.88
2023-03-06T07:36:32.502Z,16.88
2023-03-06T07:37:32.470Z,16.88
2023-03-06T07:38:32.462Z,16.88
2023-03-06T07:39:32.476Z,22.50
2023-03-06T07:40:32.433Z,22.50
2023-03-06T07:41:32.433Z,22.50
2023-03-06T07:42:32.420Z,22.50
2023-03-06T07:43:32.399Z,22.50
2023-03-06T07:44:32.410Z,22.50
2023-03-06T07:45:32.399Z,22.50
2023-03-06T07:46:32.456Z,22.50
2023-03-06T07:47:32.361Z,22.50
2023-03-06T07:48:32.358Z,16.88
2023-03-06T07:49:32.391Z,16.88
2023-03-06T07:50:32.328Z,16.88
2023-03-06T07:51:32.300Z,16.88
2023-03-06T07:52:32.293Z,16.88
2023-03-06T07:53:32.359Z,16.88
2023-03-06T07:54:32.302Z,28.12
2023-03-06T07:55:32.259Z,33.75
2023-03-06T07:56:32.248Z,28.12
2023-03-06T07:57:32.260Z,22.50
2023-03-06T07:58:32.225Z,28.12
2023-03-06T07:59:32.221Z,22.50
2023-03-06T08:00:32.234Z,22.50
2023-03-06T08:01:32.219Z,28.12
2023-03-06T08:02:32.243Z,28.12
2023-03-06T08:03:32.219Z,28.12
2023-03-06T08:04:32.174Z,33.75
2023-03-06T08:05:32.178Z,28.12
2023-03-06T08:06:32.142Z,33.75
2023-03-06T08:07:32.131Z,33.75
2023-03-06T08:08:32.125Z,33.75
2023-03-06T08:09:32.106Z,33.75
2023-03-06T08:10:32.110Z,33.75
2023-03-06T08:11:32.084Z,33.75
2023-03-06T08:12:32.087Z,33.75
2023-03-06T08:13:32.060Z,39.38
2023-03-06T08:14:32.097Z,33.75
2023-03-06T08:15:32.042Z,28.12
2023-03-06T08:16:32.121Z,22.50
2023-03-06T08:17:32.023Z,22.50
2023-03-06T08:18:32.020Z,22.50
2023-03-06T08:19:31.979Z,22.50
2023-03-06T08:20:31.973Z,22.50
2023-03-06T08:21:31.973Z,22.50
2023-03-06T08:22:31.949Z,28.12
2023-03-06T08:23:31.955Z,28.12
2023-03-06T08:24:31.931Z,28.12
2023-03-06T08:25:31.917Z,28.12
2023-03-06T08:26:31.956Z,33.75
2023-03-06T08:27:31.898Z,39.38
2023-03-06T08:28:31.895Z,39.38
2023-03-06T08:29:32.413Z,45.00
2023-03-06T08:30:31.863Z,50.62
2023-03-06T08:31:31.951Z,56.25
2023-03-06T08:32:31.889Z,50.62
2023-03-06T08:33:31.865Z,45.00
2023-03-06T08:34:31.817Z,50.62
2023-03-06T08:35:31.814Z,61.88
2023-03-06T08:36:31.843Z,50.62
2023-03-06T08:37:31.950Z,50.62
2023-03-06T08:38:31.767Z,61.88
2023-03-06T08:39:31.773Z,61.88
2023-03-06T08:40:31.749Z,78.75
2023-03-06T08:41:31.749Z,78.75
2023-03-06T08:42:31.722Z,73.12
2023-03-06T08:43:31.706Z,61.88
2023-03-06T08:44:31.700Z,56.25
2023-03-06T08:45:31.735Z,56.25
2023-03-06T08:46:31.681Z,61.88
2023-03-06T08:47:31.682Z,56.25
2023-03-06T08:48:31.667Z,45.00
2023-03-06T08:49:31.658Z,33.75
2023-03-06T08:50:31.650Z,33.75
2023-03-06T08:51:31.643Z,33.75
2023-03-06T08:52:31.628Z,28.12
2023-03-06T08:53:42.600Z,28.12
2023-03-06T08:54:32.583Z,28.12
2023-03-06T08:55:31.583Z,28.12
2023-03-06T08:56:31.578Z,28.12
2023-03-06T08:57:31.630Z,39.38
2023-03-06T08:58:31.572Z,39.38
2023-03-06T08:59:31.579Z,33.75
2023-03-06T09:00:31.604Z,39.38
2023-03-06T09:01:31.638Z,39.38
2023-03-06T09:02:31.534Z,39.38
2023-03-06T09:03:31.486Z,39.38
2023-03-06T09:04:31.528Z,39.38
2023-03-06T09:05:31.549Z,45.00
2023-03-06T09:06:31.466Z,50.62
2023-03-06T09:07:31.466Z,50.62
2023-03-06T09:08:31.446Z,50.62
2023-03-06T09:09:31.429Z,50.62
2023-03-06T09:10:31.456Z,50.62
2023-03-06T09:11:31.402Z,50.62
2023-03-06T09:12:37.380Z,45.00
2023-03-06T09:13:32.405Z,50.62
2023-03-06T09:14:31.373Z,56.25
2023-03-06T09:15:31.354Z,61.88
2023-03-06T09:16:31.413Z,56.25
2023-03-06T09:17:31.392Z,50.62
2023-03-06T09:18:31.327Z,67.50
2023-03-06T09:19:31.336Z,56.25
2023-03-06T09:20:31.310Z,61.88
2023-03-06T09:21:31.304Z,73.12
2023-03-06T09:22:31.269Z,78.75
2023-03-06T09:23:31.276Z,67.50
2023-03-06T09:24:31.268Z,78.75
2023-03-06T09:25:31.234Z,84.38
2023-03-06T09:26:45.140Z,61.88
2023-03-06T09:27:32.225Z,61.88
2023-03-06T09:28:31.227Z,50.62
2023-03-06T09:29:31.206Z,50.62
2023-03-06T09:30:31.232Z,50.62
2023-03-06T09:31:31.174Z,50.62
2023-03-06T09:32:31.198Z,56.25
2023-03-06T09:33:31.144Z,56.25
2023-03-06T09:34:31.152Z,45.00
2023-03-06T09:35:31.188Z,45.00
2023-03-06T09:36:31.116Z,50.62
2023-03-06T09:37:31.122Z,73.12
2023-03-06T09:38:31.095Z,84.38
2023-03-06T09:39:31.105Z,84.38
2023-03-06T09:40:31.108Z,95.62
2023-03-06T09:41:31.065Z,90.00
2023-03-06T09:42:31.058Z,73.12
2023-03-06T09:43:31.051Z,73.12
2023-03-06T09:44:31.030Z,67.50
2023-03-06T09:45:31.006Z,56.25
2023-03-06T09:46:31.122Z,50.62
2023-03-06T09:47:30.982Z,50.62
2023-03-06T09:48:30.990Z,50.62
2023-03-06T09:49:30.960Z,50.62
2023-03-06T09:50:30.959Z,50.62
2023-03-06T09:51:30.939Z,50.62
2023-03-06T09:52:31.130Z,50.62
2023-03-06T09:53:30.947Z,50.62
2023-03-06T09:54:30.920Z,56.25
2023-03-06T09:55:30.894Z,45.00
2023-03-06T09:56:30.897Z,33.75
2023-03-06T09:57:30.886Z,33.75
2023-03-06T09:58:30.926Z,39.38
2023-03-06T09:59:30.844Z,28.12
2023-03-06T10:00:30.850Z,22.50
2023-03-06T10:01:30.837Z,22.50
2023-03-06T10:02:30.948Z,22.50
2023-03-06T10:03:30.848Z,22.50
2023-03-06T10:04:30.931Z,16.88
2023-03-06T10:05:30.779Z,16.88
2023-03-06T10:06:30.768Z,22.50
2023-03-06T10:07:30.776Z,22.50
2023-03-06T10:08:30.774Z,22.50
2023-03-06T10:09:30.765Z,16.88
2023-03-06T10:10:30.725Z,22.50
2023-03-06T10:11:30.708Z,22.50
2023-03-06T10:12:30.703Z,28.12
2023-03-06T10:13:30.703Z,33.75
2023-03-06T10:14:30.693Z,45.00
2023-03-06T10:15:30.697Z,50.62
2023-03-06T10:16:30.671Z,50.62
2023-03-06T10:17:30.657Z,50.62
2023-03-06T10:18:30.655Z,56.25
2023-03-06T10:19:30.641Z,73.12
2023-03-06T10:20:30.626Z,101.25
2023-03-06T10:21:30.620Z,112.50
2023-03-06T10:22:30.593Z,123.75
2023-03-06T10:23:30.589Z,129.38
2023-03-06T10:24:30.592Z,118.12
2023-03-06T10:25:30.598Z,123.75
2023-03-06T10:26:30.654Z,129.38
2023-03-06T10:27:30.549Z,135.00
2023-03-06T10:28:30.564Z,112.50
2023-03-06T10:29:30.522Z,112.50
2023-03-06T10:30:30.509Z,95.62
2023-03-06T10:31:30.578Z,90.00
2023-03-06T10:32:39.684Z,95.62
2023-03-06T10:33:31.474Z,84.38
2023-03-06T10:34:30.473Z,73.12
2023-03-06T10:35:31.002Z,67.50
2023-03-06T10:36:30.435Z,67.50
2023-03-06T10:37:32.327Z,67.50
2023-03-06T10:38:30.422Z,61.88
2023-03-06T10:39:30.412Z,67.50
2023-03-06T10:40:30.402Z,67.50
2023-03-06T10:41:30.401Z,61.88
2023-03-06T10:42:30.383Z,56.25
2023-03-06T10:43:30.368Z,45.00
2023-03-06T10:44:30.355Z,33.75
2023-03-06T10:45:40.531Z,28.12
2023-03-06T10:46:31.406Z,28.12
2023-03-06T10:47:30.327Z,28.12
2023-03-06T10:48:30.319Z,28.12
2023-03-06T10:49:30.313Z,28.12
2023-03-06T10:50:30.297Z,28.12
2023-03-06T10:51:30.281Z,28.12
2023-03-06T10:52:30.267Z,28.12
2023-03-06T10:53:30.235Z,28.12
2023-03-06T10:54:30.241Z,28.12
2023-03-06T10:55:30.243Z,28.12
2023-03-06T10:56:30.206Z,28.12
2023-03-06T10:57:30.239Z,28.12
2023-03-06T10:58:30.207Z,22.50
2023-03-06T10:59:30.185Z,22.50
2023-03-06T11:00:30.170Z,22.50
2023-03-06T11:01:30.265Z,22.50
2023-03-06T11:02:30.138Z,22.50
2023-03-06T11:03:30.138Z,22.50
2023-03-06T11:04:30.240Z,22.50
2023-03-06T11:05:30.134Z,22.50
2023-03-06T11:06:30.106Z,16.88
2023-03-06T11:07:30.103Z,16.88
2023-03-06T11:08:30.078Z,16.88
2023-03-06T11:09:30.067Z,22.50
2023-03-06T11:10:30.062Z,22.50
2023-03-06T11:11:37.497Z,28.12
2023-03-06T11:12:31.016Z,28.12
2023-03-06T11:13:30.032Z,28.12
2023-03-06T11:14:29.993Z,28.12
2023-03-06T11:15:30.003Z,28.12
2023-03-06T11:16:30.040Z,22.50
2023-03-06T11:17:29.965Z,22.50
2023-03-06T11:18:29.966Z,22.50
2023-03-06T11:19:29.944Z,28.12
2023-03-06T11:20:41.224Z,33.75
2023-03-06T11:21:31.730Z,33.75
2023-03-06T11:22:29.919Z,39.38
2023-03-06T11:23:29.899Z,39.38
2023-03-06T11:24:29.882Z,39.38
2023-03-06T11:25:29.895Z,39.38
2023-03-06T11:26:29.870Z,39.38
2023-03-06T11:27:29.853Z,33.75
2023-03-06T11:28:29.838Z,28.12
2023-03-06T11:29:30.522Z,28.12
2023-03-06T11:30:29.823Z,28.12
2023-03-06T11:31:29.893Z,28.12
2023-03-06T11:32:29.867Z,28.12
2023-03-06T11:33:29.805Z,28.12
2023-03-06T11:34:29.761Z,33.75
2023-03-06T11:35:29.794Z,28.12
2023-03-06T11:36:29.779Z,28.12
2023-03-06T11:37:29.734Z,28.12
2023-03-06T11:38:29.735Z,22.50
2023-03-06T11:39:29.709Z,22.50
2023-03-06T11:40:29.709Z,22.50
2023-03-06T11:41:29.716Z,28.12
2023-03-06T11:42:29.676Z,28.12
2023-03-06T11:43:29.663Z,33.75
2023-03-06T11:44:29.653Z,39.38
2023-03-06T11:45:29.738Z,45.00
2023-03-06T11:46:29.836Z,50.62
2023-03-06T11:47:29.636Z,50.62
2023-03-06T11:48:29.610Z,45.00
2023-03-06T11:49:29.611Z,50.62
2023-03-06T11:50:29.597Z,56.25
2023-03-06T11:51:29.603Z,61.88
2023-03-06T11:52:29.574Z,56.25
2023-03-06T11:53:29.566Z,39.38
2023-03-06T11:54:29.551Z,39.38
2023-03-06T11:55:29.545Z,45.00
2023-03-06T11:56:31.583Z,45.00
2023-03-06T11:57:29.512Z,45.00
2023-03-06T11:58:29.518Z,50.62
2023-03-06T11:59:29.495Z,50.62
2023-03-06T12:00:29.488Z,50.62
2023-03-06T12:01:29.490Z,45.00
2023-03-06T12:02:29.558Z,45.00
2023-03-06T12:03:29.457Z,39.38
2023-03-06T12:04:29.461Z,33.75
2023-03-06T12:05:29.480Z,39.38
2023-03-06T12:06:29.421Z,45.00
2023-03-06T12:07:29.422Z,45.00
2023-03-06T12:08:29.396Z,33.75
2023-03-06T12:09:29.408Z,28.12
2023-03-06T12:10:29.364Z,33.75
2023-03-06T12:11:30.696Z,33.75
2023-03-06T12:12:29.351Z,33.75
2023-03-06T12:13:29.344Z,28.12
2023-03-06T12:14:29.347Z,33.75
2023-03-06T12:15:29.307Z,39.38
2023-03-06T12:16:29.346Z,45.00
2023-03-06T12:17:29.324Z,45.00
2023-03-06T12:18:29.286Z,39.38
2023-03-06T12:19:29.284Z,39.38
2023-03-06T12:20:29.265Z,45.00
2023-03-06T12:21:29.257Z,50.62
2023-03-06T12:22:31.175Z,67.50
2023-03-06T12:23:29.213Z,67.50
2023-03-06T12:24:29.212Z,61.88
2023-03-06T12:25:29.214Z,67.50
2023-03-06T12:26:29.182Z,84.38
2023-03-06T12:27:29.172Z,90.00
2023-03-06T12:28:29.177Z,84.38
2023-03-06T12:29:29.163Z,73.12
2023-03-06T12:30:29.144Z,73.12
2023-03-06T12:31:29.201Z,67.50
2023-03-06T12:32:29.138Z,67.50
2023-03-06T12:33:29.137Z,61.88
2023-03-06T12:34:29.086Z,61.88
2023-03-06T12:35:29.689Z,61.88
2023-03-06T12:36:29.108Z,56.25
2023-03-06T12:37:29.056Z,45.00
2023-03-06T12:38:29.050Z,45.00
2023-03-06T12:39:29.031Z,50.62
2023-03-06T12:40:29.026Z,56.25
2023-03-06T12:41:29.027Z,67.50
2023-03-06T12:42:29.001Z,73.12
2023-03-06T12:43:28.990Z,67.50
2023-03-06T12:44:28.998Z,67.50
2023-03-06T12:45:28.977Z,67.50
2023-03-06T12:46:28.976Z,73.12
2023-03-06T12:47:28.940Z,73.12
2023-03-06T12:48:28.939Z,67.50
2023-03-06T12:49:32.475Z,67.50
2023-03-06T12:50:28.918Z,56.25
2023-03-06T12:51:28.916Z,39.38
2023-03-06T12:52:30.436Z,39.38
2023-03-06T12:53:28.897Z,39.38
2023-03-06T12:54:28.861Z,45.00
2023-03-06T12:55:28.868Z,45.00
2023-03-06T12:56:28.860Z,45.00
2023-03-06T12:57:28.845Z,50.62
2023-03-06T12:58:28.839Z,50.62
2023-03-06T12:59:28.829Z,50.62
2023-03-06T13:00:28.808Z,50.62
2023-03-06T13:01:28.818Z,50.62
2023-03-06T13:02:28.861Z,56.25
2023-03-06T13:03:28.763Z,56.25
2023-03-06T13:04:28.760Z,56.25
2023-03-06T13:05:28.775Z,50.62
2023-03-06T13:06:29.798Z,50.62
2023-03-06T13:07:28.738Z,50.62
2023-03-06T13:08:28.731Z,61.88
2023-03-06T13:09:28.703Z,61.88
2023-03-06T13:10:28.715Z,73.12
2023-03-06T13:11:28.702Z,73.12
2023-03-06T13:12:28.671Z,73.12
2023-03-06T13:13:28.666Z,67.50
2023-03-06T13:14:28.649Z,67.50
2023-03-06T13:15:28.655Z,61.88
2023-03-06T13:16:28.675Z,50.62
2023-03-06T13:17:28.635Z,45.00
2023-03-06T13:18:28.591Z,45.00
2023-03-06T13:19:28.597Z,50.62
2023-03-06T13:20:28.604Z,56.25
2023-03-06T13:21:28.603Z,56.25
2023-03-06T13:22:28.549Z,61.88
2023-03-06T13:23:28.554Z,67.50
2023-03-06T13:24:28.524Z,61.88
2023-03-06T13:25:28.549Z,56.25
2023-03-06T13:26:28.512Z,45.00
2023-03-06T13:27:28.494Z,45.00
2023-03-06T13:28:28.490Z,50.62
2023-03-06T13:29:28.484Z,50.62
2023-03-06T13:30:28.472Z,45.00
2023-03-06T13:31:28.592Z,39.38
2023-03-06T13:32:28.460Z,45.00
2023-03-06T13:33:28.433Z,39.38
2023-03-06T13:34:28.417Z,33.75
2023-03-06T13:35:28.426Z,28.12
2023-03-06T13:36:28.411Z,28.12
2023-03-06T13:37:28.417Z,28.12
2023-03-06T13:38:28.358Z,22.50
2023-03-06T13:39:28.351Z,22.50
2023-03-06T13:40:28.348Z,22.50
2023-03-06T13:41:28.345Z,22.50
2023-03-06T13:42:28.312Z,22.50
2023-03-06T13:43:28.316Z,22.50
2023-03-06T13:44:28.292Z,22.50
2023-03-06T13:45:28.303Z,28.12
2023-03-06T13:46:28.309Z,28.12
2023-03-06T13:47:28.258Z,28.12
2023-03-06T13:48:45.894Z,33.75
2023-03-06T13:49:29.307Z,39.38
2023-03-06T13:50:28.262Z,39.38
2023-03-06T13:51:28.251Z,33.75
2023-03-06T13:52:28.211Z,28.12
2023-03-06T13:53:28.271Z,28.12
2023-03-06T13:54:28.177Z,28.12
2023-03-06T13:55:28.188Z,22.50
2023-03-06T13:56:28.171Z,22.50
2023-03-06T13:57:28.144Z,28.12
2023-03-06T13:58:28.142Z,33.75
2023-03-06T13:59:28.133Z,33.75
2023-03-06T14:00:28.109Z,28.12
2023-03-06T14:01:28.163Z,28.12
2023-03-06T14:02:28.169Z,28.12
2023-03-06T14:03:28.092Z,33.75
2023-03-06T14:04:28.060Z,33.75
2023-03-06T14:05:28.057Z,33.75
2023-03-06T14:06:28.054Z,33.75
2023-03-06T14:07:28.036Z,33.75
2023-03-06T14:08:28.037Z,33.75
2023-03-06T14:09:28.031Z,33.75
2023-03-06T14:10:28.000Z,33.75
2023-03-06T14:11:28.018Z,28.12
2023-03-06T14:12:27.971Z,28.12
2023-03-06T14:13:32.325Z,28.12
2023-03-06T14:14:28.950Z,28.12
2023-03-06T14:15:27.939Z,28.12
2023-03-06T14:16:32.596Z,28.12
2023-03-06T14:17:28.930Z,28.12
2023-03-06T14:18:27.904Z,22.50
2023-03-06T14:19:27.893Z,22.50
2023-03-06T14:20:27.876Z,22.50
2023-03-06T14:21:27.896Z,22.50
2023-03-06T14:22:27.854Z,22.50
2023-03-06T14:23:27.852Z,28.12
2023-03-06T14:24:27.829Z,28.12
2023-03-06T14:25:27.866Z,22.50
2023-03-06T14:26:27.841Z,22.50
2023-03-06T14:27:27.799Z,22.50
2023-03-06T14:28:27.783Z,16.88
2023-03-06T14:29:27.798Z,22.50
2023-03-06T14:30:27.760Z,22.50
2023-03-06T14:31:27.814Z,28.12
2023-03-06T14:32:27.782Z,28.12
2023-03-06T14:33:27.752Z,33.75
2023-03-06T14:34:27.717Z,33.75
2023-03-06T14:35:27.764Z,28.12
2023-03-06T14:36:27.711Z,22.50
2023-03-06T14:37:27.692Z,22.50
2023-03-06T14:38:27.673Z,22.50
2023-03-06T14:39:27.666Z,22.50
2023-03-06T14:40:27.664Z,22.50
2023-03-06T14:41:27.748Z,22.50
2023-03-06T14:42:27.646Z,22.50
2023-03-06T14:43:27.634Z,28.12
2023-03-06T14:44:27.607Z,22.50
2023-03-06T14:45:27.615Z,22.50
2023-03-06T14:46:27.643Z,22.50
2023-03-06T14:47:27.591Z,22.50
2023-03-06T14:48:27.580Z,22.50
2023-03-06T14:49:27.591Z,22.50
2023-03-06T14:50:27.548Z,22.50
2023-03-06T14:51:27.570Z,22.50
2023-03-06T14:52:27.529Z,22.50
2023-03-06T14:53:27.508Z,22.50
2023-03-06T14:54:27.528Z,28.12
2023-03-06T14:55:27.498Z,28.12
2023-03-06T14:56:27.516Z,28.12
2023-03-06T14:57:27.502Z,33.75
2023-03-06T14:58:27.488Z,33.75
2023-03-06T14:59:27.442Z,33.75
2023-03-06T15:00:27.474Z,33.75
2023-03-06T15:01:27.488Z,33.75
2023-03-06T15:02:27.479Z,33.75
2023-03-06T15:03:27.398Z,33.75
2023-03-06T15:04:27.388Z,33.75
2023-03-06T15:05:27.373Z,33.75
2023-03-06T15:06:27.373Z,28.12
2023-03-06T15:07:27.380Z,28.12
2023-03-06T15:08:27.335Z,22.50
2023-03-06T15:09:27.339Z,22.50
2023-03-06T15:10:27.314Z,22.50
2023-03-06T15:11:27.312Z,22.50
2023-03-06T15:12:27.314Z,28.12
2023-03-06T15:13:27.312Z,28.12
2023-03-06T15:14:27.272Z,22.50
2023-03-06T15:15:28.183Z,22.50
2023-03-06T15:16:29.919Z,22.50
2023-03-06T15:17:27.285Z,22.50
2023-03-06T15:18:27.238Z,28.12
2023-03-06T15:19:27.220Z,33.75
2023-03-06T15:20:27.197Z,33.75
2023-03-06T15:21:27.219Z,33.75
2023-03-06T15:22:27.211Z,33.75
2023-03-06T15:23:27.159Z,33.75
2023-03-06T15:24:27.157Z,33.75
2023-03-06T15:25:27.155Z,39.38
2023-03-06T15:26:29.236Z,39.38
2023-03-06T15:27:27.125Z,39.38
2023-03-06T15:28:27.161Z,39.38
2023-03-06T15:29:27.128Z,39.38
2023-03-06T15:30:27.100Z,39.38
2023-03-06T15:31:27.153Z,39.38
2023-03-06T15:32:27.121Z,39.38
2023-03-06T15:33:27.065Z,39.38
2023-03-06T15:34:27.039Z,39.38
2023-03-06T15:35:27.035Z,39.38
2023-03-06T15:36:27.019Z,39.38
2023-03-06T15:37:27.018Z,39.38
2023-03-06T15:38:27.017Z,39.38
2023-03-06T15:39:26.986Z,39.38
2023-03-06T15:40:26.971Z,39.38
2023-03-06T15:41:26.962Z,33.75
2023-03-06T15:42:26.991Z,33.75
2023-03-06T15:43:26.948Z,33.75
2023-03-06T15:44:26.949Z,28.12
2023-03-06T15:45:26.999Z,28.12
2023-03-06T15:46:26.936Z,28.12
2023-03-06T15:47:26.906Z,22.50
2023-03-06T15:48:26.916Z,22.50
2023-03-06T15:49:26.865Z,22.50
2023-03-06T15:50:26.880Z,16.88
2023-03-06T15:51:26.843Z,16.88
2023-03-06T15:52:26.876Z,16.88
2023-03-06T15:53:26.839Z,16.88
2023-03-06T15:54:26.815Z,16.88
2023-03-06T15:55:26.801Z,16.88
2023-03-06T15:56:26.805Z,16.88
2023-03-06T15:57:26.800Z,16.88
2023-03-06T15:58:26.823Z,16.88
2023-03-06T15:59:26.775Z,22.50
2023-03-06T16:00:28.153Z,22.50
2023-03-06T16:01:26.901Z,22.50
2023-03-06T16:02:26.752Z,22.50
2023-03-06T16:03:26.710Z,22.50
2023-03-06T16:04:26.742Z,16.88
2023-03-06T16:05:26.709Z,16.88
2023-03-06T16:06:26.679Z,16.88
2023-03-06T16:07:28.302Z,16.88
2023-03-06T16:08:26.663Z,16.88
2023-03-06T16:09:26.643Z,16.88
2023-03-06T16:10:26.646Z,16.88
2023-03-06T16:11:32.552Z,16.88
2023-03-06T16:12:27.666Z,16.88
2023-03-06T16:13:26.613Z,16.88
2023-03-06T16:14:26.619Z,11.25
2023-03-06T16:15:26.585Z,11.25
2023-03-06T16:16:26.563Z,11.25
2023-03-06T16:17:26.602Z,11.25
2023-03-06T16:18:26.691Z,11.25
2023-03-06T16:19:27.590Z,11.25
2023-03-06T16:20:26.543Z,11.25
2023-03-06T16:21:26.518Z,11.25
2023-03-06T16:22:26.507Z,11.25
2023-03-06T16:23:26.506Z,11.25
2023-03-06T16:24:26.483Z,11.25
2023-03-06T16:25:26.470Z,11.25
2023-03-06T16:26:26.446Z,11.25
2023-03-06T16:27:26.443Z,11.25
2023-03-06T16:28:26.554Z,11.25
2023-03-06T16:29:26.413Z,5.62